sensor_id;sensor_type;location;lat;lon;timestamp;temperature;humidity
10964;DHT22;5534;48.784;9.190;2023-05-20T00:00:32;15.10;99.90
10964;DHT22;5534;48.784;9.190;2023-05-20T00:02:57;14.90;99.90
10964;DHT22;5534;48.784;9.190;2023-05-20T00:05:25;15.10;99.90
10964;DHT22;5534;48.784;9.190;2023-05-20T00:07:51;15.10;99.90
10964;DHT22;5534;48.784;9.190;2023-05-20T00:10:17;15.00;99.90
10964;DHT22;5534;48.784;9.190;2023-05-20T00:12:42;15.00;99.90
10964;DHT22;5534;48.784;9.190;2023-05-20T00:15:08;15.00;99.90
10964;DHT22;5534;48.784;9.190;2023-05-20T00:17:36;15.00;99.90
10964;DHT22;5534;48.784;9.190;2023-05-20T00:20:02;15.10;99.90
10964;DHT22;5534;48.784;9.190;2023-05-20T00:22:30;15.10;99.90
10964;DHT22;5534;48.784;9.190;2023-05-20T00:24:56;15.10;99.90
10964;DHT22;5534;48.784;9.190;2023-05-20T00:27:22;15.10;99.90
10964;DHT22;5534;48.784;9.190;2023-05-20T00:29:47;15.10;99.90
10964;DHT22;5534;48.784;9.190;2023-05-20T00:32:13;15.10;99.90
10964;DHT22;5534;48.784;9.190;2023-05-20T00:34:39;15.20;99.90
10964;DHT22;5534;48.784;9.190;2023-05-20T00:37:05;15.20;99.90
10964;DHT22;5534;48.784;9.190;2023-05-20T00:39:31;15.20;99.90
10964;DHT22;5534;48.784;9.190;2023-05-20T00:41:56;15.20;99.90
10964;DHT22;5534;48.784;9.190;2023-05-20T00:44:27;15.10;99.90
10964;DHT22;5534;48.784;9.190;2023-05-20T00:46:53;15.10;99.90
10964;DHT22;5534;48.784;9.190;2023-05-20T00:49:19;15.00;99.90
10964;DHT22;5534;48.784;9.190;2023-05-20T00:51:46;14.90;99.90
10964;DHT22;5534;48.784;9.190;2023-05-20T00:54:12;14.90;99.90
10964;DHT22;5534;48.784;9.190;2023-05-20T00:56:42;15.10;99.90
10964;DHT22;5534;48.784;9.190;2023-05-20T00:59:11;15.10;99.90
10964;DHT22;5534;48.784;9.190;2023-05-20T01:01:36;15.10;99.90
10964;DHT22;5534;48.784;9.190;2023-05-20T01:04:03;15.10;99.90
10964;DHT22;5534;48.784;9.190;2023-05-20T01:06:28;15.10;99.90
10964;DHT22;5534;48.784;9.190;2023-05-20T01:08:54;15.10;99.90
10964;DHT22;5534;48.784;9.190;2023-05-20T01:11:34;15.20;99.90
10964;DHT22;5534;48.784;9.190;2023-05-20T01:14:05;15.20;99.90
10964;DHT22;5534;48.784;9.190;2023-05-20T01:16:32;15.20;99.90
10964;DHT22;5534;48.784;9.190;2023-05-20T01:19:01;15.20;99.90
10964;DHT22;5534;48.784;9.190;2023-05-20T01:21:29;15.30;99.90
10964;DHT22;5534;48.784;9.190;2023-05-20T01:23:55;15.10;99.90
10964;DHT22;5534;48.784;9.190;2023-05-20T01:26:21;15.00;99.90
10964;DHT22;5534;48.784;9.190;2023-05-20T01:28:51;15.00;99.90
10964;DHT22;5534;48.784;9.190;2023-05-20T01:31:20;15.20;99.90
10964;DHT22;5534;48.784;9.190;2023-05-20T01:33:51;15.20;99.90
10964;DHT22;5534;48.784;9.190;2023-05-20T01:36:20;15.20;99.90
10964;DHT22;5534;48.784;9.190;2023-05-20T01:38:47;15.10;99.90
10964;DHT22;5534;48.784;9.190;2023-05-20T01:41:14;15.10;99.90
10964;DHT22;5534;48.784;9.190;2023-05-20T01:43:40;15.10;99.90
10964;DHT22;5534;48.784;9.190;2023-05-20T01:46:06;15.20;99.90
10964;DHT22;5534;48.784;9.190;2023-05-20T01:48:32;15.20;99.90
10964;DHT22;5534;48.784;9.190;2023-05-20T01:50:57;15.10;99.90
10964;DHT22;5534;48.784;9.190;2023-05-20T01:53:26;15.20;99.90
10964;DHT22;5534;48.784;9.190;2023-05-20T01:55:51;15.10;99.90
10964;DHT22;5534;48.784;9.190;2023-05-20T01:58:17;15.10;99.90
10964;DHT22;5534;48.784;9.190;2023-05-20T02:00:43;15.10;99.90
10964;DHT22;5534;48.784;9.190;2023-05-20T02:03:08;15.00;99.90
10964;DHT22;5534;48.784;9.190;2023-05-20T02:05:35;15.00;99.90
10964;DHT22;5534;48.784;9.190;2023-05-20T02:08:01;15.10;99.90
10964;DHT22;5534;48.784;9.190;2023-05-20T02:10:27;15.10;99.90
10964;DHT22;5534;48.784;9.190;2023-05-20T02:12:52;15.10;99.90
10964;DHT22;5534;48.784;9.190;2023-05-20T02:15:18;15.10;99.90
10964;DHT22;5534;48.784;9.190;2023-05-20T02:17:45;15.00;99.90
10964;DHT22;5534;48.784;9.190;2023-05-20T02:20:11;14.90;99.90
10964;DHT22;5534;48.784;9.190;2023-05-20T02:22:38;14.90;99.90
10964;DHT22;5534;48.784;9.190;2023-05-20T02:25:04;14.80;99.90
10964;DHT22;5534;48.784;9.190;2023-05-20T02:27:30;14.80;99.90
10964;DHT22;5534;48.784;9.190;2023-05-20T02:30:02;14.70;99.90
10964;DHT22;5534;48.784;9.190;2023-05-20T02:32:28;14.80;99.90
10964;DHT22;5534;48.784;9.190;2023-05-20T02:34:54;14.80;99.90
10964;DHT22;5534;48.784;9.190;2023-05-20T02:37:23;14.80;99.90
10964;DHT22;5534;48.784;9.190;2023-05-20T02:39:49;14.70;99.90
10964;DHT22;5534;48.784;9.190;2023-05-20T02:42:14;14.80;99.90
10964;DHT22;5534;48.784;9.190;2023-05-20T02:44:40;14.80;99.90
10964;DHT22;5534;48.784;9.190;2023-05-20T02:47:06;14.80;99.90
10964;DHT22;5534;48.784;9.190;2023-05-20T02:49:32;14.80;99.90
10964;DHT22;5534;48.784;9.190;2023-05-20T02:51:57;14.70;99.90
10964;DHT22;5534;48.784;9.190;2023-05-20T02:54:23;14.80;99.90
10964;DHT22;5534;48.784;9.190;2023-05-20T02:56:49;14.80;99.90
10964;DHT22;5534;48.784;9.190;2023-05-20T02:59:27;14.70;99.90
10964;DHT22;5534;48.784;9.190;2023-05-20T03:01:53;14.70;99.90
10964;DHT22;5534;48.784;9.190;2023-05-20T03:04:18;14.60;99.90
10964;DHT22;5534;48.784;9.190;2023-05-20T03:06:46;14.50;99.90
10964;DHT22;5534;48.784;9.190;2023-05-20T03:09:12;14.60;99.90
10964;DHT22;5534;48.784;9.190;2023-05-20T03:11:38;14.70;99.90
10964;DHT22;5534;48.784;9.190;2023-05-20T03:14:04;14.70;99.90
10964;DHT22;5534;48.784;9.190;2023-05-20T03:16:30;14.70;99.90
10964;DHT22;5534;48.784;9.190;2023-05-20T03:18:55;14.70;99.90
10964;DHT22;5534;48.784;9.190;2023-05-20T03:21:21;14.70;99.90
10964;DHT22;5534;48.784;9.190;2023-05-20T03:23:48;14.60;99.90
10964;DHT22;5534;48.784;9.190;2023-05-20T03:26:14;14.70;99.90
10964;DHT22;5534;48.784;9.190;2023-05-20T03:28:39;14.60;99.90
10964;DHT22;5534;48.784;9.190;2023-05-20T03:31:05;14.60;99.90
10964;DHT22;5534;48.784;9.190;2023-05-20T03:33:33;14.50;99.90
10964;DHT22;5534;48.784;9.190;2023-05-20T03:35:59;14.50;99.90
10964;DHT22;5534;48.784;9.190;2023-05-20T03:38:25;14.50;99.90
10964;DHT22;5534;48.784;9.190;2023-05-20T03:40:51;14.50;99.90
10964;DHT22;5534;48.784;9.190;2023-05-20T03:43:17;14.40;99.90
10964;DHT22;5534;48.784;9.190;2023-05-20T03:45:43;14.40;99.90
10964;DHT22;5534;48.784;9.190;2023-05-20T03:48:08;14.50;99.90
10964;DHT22;5534;48.784;9.190;2023-05-20T03:50:34;14.10;99.90
10964;DHT22;5534;48.784;9.190;2023-05-20T03:53:00;14.10;99.90
10964;DHT22;5534;48.784;9.190;2023-05-20T03:55:26;14.10;99.90
10964;DHT22;5534;48.784;9.190;2023-05-20T03:57:52;14.10;99.90
10964;DHT22;5534;48.784;9.190;2023-05-20T04:00:18;14.30;99.90
10964;DHT22;5534;48.784;9.190;2023-05-20T04:02:43;14.10;99.90
10964;DHT22;5534;48.784;9.190;2023-05-20T04:05:10;14.20;99.90
10964;DHT22;5534;48.784;9.190;2023-05-20T04:07:36;14.30;99.90
10964;DHT22;5534;48.784;9.190;2023-05-20T04:10:02;14.40;99.90
10964;DHT22;5534;48.784;9.190;2023-05-20T04:12:28;14.50;99.90
10964;DHT22;5534;48.784;9.190;2023-05-20T04:14:57;14.40;99.90
10964;DHT22;5534;48.784;9.190;2023-05-20T04:17:27;14.60;99.90
10964;DHT22;5534;48.784;9.190;2023-05-20T04:19:55;14.60;99.90
10964;DHT22;5534;48.784;9.190;2023-05-20T04:22:22;14.60;99.90
10964;DHT22;5534;48.784;9.190;2023-05-20T04:24:48;14.50;99.90
10964;DHT22;5534;48.784;9.190;2023-05-20T04:27:14;14.60;99.90
10964;DHT22;5534;48.784;9.190;2023-05-20T04:29:41;14.60;99.90
10964;DHT22;5534;48.784;9.190;2023-05-20T04:32:16;14.80;99.90
10964;DHT22;5534;48.784;9.190;2023-05-20T04:34:43;14.70;99.90
10964;DHT22;5534;48.784;9.190;2023-05-20T04:37:10;14.70;99.90
10964;DHT22;5534;48.784;9.190;2023-05-20T04:39:36;14.80;99.90
10964;DHT22;5534;48.784;9.190;2023-05-20T04:42:02;14.80;99.90
10964;DHT22;5534;48.784;9.190;2023-05-20T04:44:28;14.70;99.90
10964;DHT22;5534;48.784;9.190;2023-05-20T04:46:55;14.60;99.90
10964;DHT22;5534;48.784;9.190;2023-05-20T04:49:23;14.70;99.90
10964;DHT22;5534;48.784;9.190;2023-05-20T04:51:51;14.80;99.90
10964;DHT22;5534;48.784;9.190;2023-05-20T04:54:17;14.80;99.90
10964;DHT22;5534;48.784;9.190;2023-05-20T04:56:43;14.80;99.90
10964;DHT22;5534;48.784;9.190;2023-05-20T04:59:09;14.90;99.90
10964;DHT22;5534;48.784;9.190;2023-05-20T05:01:35;14.90;99.90
10964;DHT22;5534;48.784;9.190;2023-05-20T05:04:01;14.80;99.90
10964;DHT22;5534;48.784;9.190;2023-05-20T05:06:29;14.80;99.90
10964;DHT22;5534;48.784;9.190;2023-05-20T05:08:55;14.90;99.90
10964;DHT22;5534;48.784;9.190;2023-05-20T05:11:21;15.00;99.90
10964;DHT22;5534;48.784;9.190;2023-05-20T05:13:46;15.20;99.90
10964;DHT22;5534;48.784;9.190;2023-05-20T05:16:12;15.10;99.90
10964;DHT22;5534;48.784;9.190;2023-05-20T05:18:41;15.10;99.90
10964;DHT22;5534;48.784;9.190;2023-05-20T05:21:06;15.10;99.90
10964;DHT22;5534;48.784;9.190;2023-05-20T05:23:32;15.10;99.90
10964;DHT22;5534;48.784;9.190;2023-05-20T05:25:58;15.10;99.90
10964;DHT22;5534;48.784;9.190;2023-05-20T05:28:24;15.20;99.90
10964;DHT22;5534;48.784;9.190;2023-05-20T05:30:50;15.20;99.90
10964;DHT22;5534;48.784;9.190;2023-05-20T05:33:16;15.10;99.90
10964;DHT22;5534;48.784;9.190;2023-05-20T05:35:43;15.40;99.90
10964;DHT22;5534;48.784;9.190;2023-05-20T05:38:09;15.60;99.90
10964;DHT22;5534;48.784;9.190;2023-05-20T05:40:36;15.40;99.90
10964;DHT22;5534;48.784;9.190;2023-05-20T05:43:02;15.40;99.90
10964;DHT22;5534;48.784;9.190;2023-05-20T05:45:27;15.50;99.90
10964;DHT22;5534;48.784;9.190;2023-05-20T05:47:53;15.60;99.90
10964;DHT22;5534;48.784;9.190;2023-05-20T05:50:19;15.70;99.90
10964;DHT22;5534;48.784;9.190;2023-05-20T05:52:45;15.80;99.90
10964;DHT22;5534;48.784;9.190;2023-05-20T05:55:11;15.70;99.90
10964;DHT22;5534;48.784;9.190;2023-05-20T05:57:37;15.80;99.90
10964;DHT22;5534;48.784;9.190;2023-05-20T06:00:03;15.80;99.90
10964;DHT22;5534;48.784;9.190;2023-05-20T06:02:29;15.70;99.90
10964;DHT22;5534;48.784;9.190;2023-05-20T06:05:03;15.80;99.90
10964;DHT22;5534;48.784;9.190;2023-05-20T06:07:29;15.90;99.90
10964;DHT22;5534;48.784;9.190;2023-05-20T06:09:55;15.90;99.90
10964;DHT22;5534;48.784;9.190;2023-05-20T06:12:21;15.80;99.90
10964;DHT22;5534;48.784;9.190;2023-05-20T06:14:47;15.90;99.90
10964;DHT22;5534;48.784;9.190;2023-05-20T06:17:13;16.00;99.90
10964;DHT22;5534;48.784;9.190;2023-05-20T06:19:39;16.20;99.90
10964;DHT22;5534;48.784;9.190;2023-05-20T06:22:05;16.10;99.90
10964;DHT22;5534;48.784;9.190;2023-05-20T06:24:31;16.00;99.90
10964;DHT22;5534;48.784;9.190;2023-05-20T06:26:57;16.00;99.90
10964;DHT22;5534;48.784;9.190;2023-05-20T06:29:23;16.20;99.90
10964;DHT22;5534;48.784;9.190;2023-05-20T06:31:48;16.20;99.90
10964;DHT22;5534;48.784;9.190;2023-05-20T06:34:14;16.20;99.90
10964;DHT22;5534;48.784;9.190;2023-05-20T06:36:40;16.30;99.90
10964;DHT22;5534;48.784;9.190;2023-05-20T06:39:06;16.40;99.90
10964;DHT22;5534;48.784;9.190;2023-05-20T06:41:38;16.50;99.90
10964;DHT22;5534;48.784;9.190;2023-05-20T06:44:04;16.60;99.90
10964;DHT22;5534;48.784;9.190;2023-05-20T06:46:30;16.40;99.90
10964;DHT22;5534;48.784;9.190;2023-05-20T06:48:58;16.70;99.90
10964;DHT22;5534;48.784;9.190;2023-05-20T06:51:24;16.80;99.90
10964;DHT22;5534;48.784;9.190;2023-05-20T06:53:49;17.10;99.90
10964;DHT22;5534;48.784;9.190;2023-05-20T06:56:15;17.40;99.90
10964;DHT22;5534;48.784;9.190;2023-05-20T06:58:41;18.30;99.90
10964;DHT22;5534;48.784;9.190;2023-05-20T07:01:07;19.00;99.90
10964;DHT22;5534;48.784;9.190;2023-05-20T07:03:32;18.90;99.90
10964;DHT22;5534;48.784;9.190;2023-05-20T07:05:58;18.30;99.90
10964;DHT22;5534;48.784;9.190;2023-05-20T07:08:24;18.00;99.90
10964;DHT22;5534;48.784;9.190;2023-05-20T07:10:50;18.20;99.90
10964;DHT22;5534;48.784;9.190;2023-05-20T07:13:16;18.20;99.90
10964;DHT22;5534;48.784;9.190;2023-05-20T07:15:45;18.00;99.90
10964;DHT22;5534;48.784;9.190;2023-05-20T07:18:11;18.10;99.90
10964;DHT22;5534;48.784;9.190;2023-05-20T07:20:37;18.70;99.90
10964;DHT22;5534;48.784;9.190;2023-05-20T07:23:03;18.70;99.90
10964;DHT22;5534;48.784;9.190;2023-05-20T07:25:29;18.80;99.90
10964;DHT22;5534;48.784;9.190;2023-05-20T07:27:55;18.90;99.90
10964;DHT22;5534;48.784;9.190;2023-05-20T07:30:20;19.30;99.90
10964;DHT22;5534;48.784;9.190;2023-05-20T07:32:46;20.00;99.90
10964;DHT22;5534;48.784;9.190;2023-05-20T07:35:12;20.60;99.90
10964;DHT22;5534;48.784;9.190;2023-05-20T07:37:38;21.00;99.90
10964;DHT22;5534;48.784;9.190;2023-05-20T07:40:04;20.70;99.90
10964;DHT22;5534;48.784;9.190;2023-05-20T07:42:30;21.50;99.90
10964;DHT22;5534;48.784;9.190;2023-05-20T07:44:56;21.90;99.90
10964;DHT22;5534;48.784;9.190;2023-05-20T07:47:21;22.10;99.90
10964;DHT22;5534;48.784;9.190;2023-05-20T07:49:47;21.60;99.90
10964;DHT22;5534;48.784;9.190;2023-05-20T07:52:13;21.30;99.90
10964;DHT22;5534;48.784;9.190;2023-05-20T07:54:40;21.00;99.90
10964;DHT22;5534;48.784;9.190;2023-05-20T07:57:06;20.40;99.90
10964;DHT22;5534;48.784;9.190;2023-05-20T07:59:32;20.00;99.90
10964;DHT22;5534;48.784;9.190;2023-05-20T08:01:57;19.60;99.90
10964;DHT22;5534;48.784;9.190;2023-05-20T08:04:23;19.20;99.90
10964;DHT22;5534;48.784;9.190;2023-05-20T08:06:52;19.40;99.90
10964;DHT22;5534;48.784;9.190;2023-05-20T08:09:18;19.70;99.90
10964;DHT22;5534;48.784;9.190;2023-05-20T08:11:45;19.70;99.90
10964;DHT22;5534;48.784;9.190;2023-05-20T08:14:11;19.90;99.90
10964;DHT22;5534;48.784;9.190;2023-05-20T08:16:37;20.20;99.90
10964;DHT22;5534;48.784;9.190;2023-05-20T08:19:03;20.60;99.90
10964;DHT22;5534;48.784;9.190;2023-05-20T08:21:28;20.70;99.90
10964;DHT22;5534;48.784;9.190;2023-05-20T08:23:54;20.70;99.90
10964;DHT22;5534;48.784;9.190;2023-05-20T08:26:20;20.40;99.90
10964;DHT22;5534;48.784;9.190;2023-05-20T08:28:46;19.80;99.90
10964;DHT22;5534;48.784;9.190;2023-05-20T08:31:14;19.60;99.90
10964;DHT22;5534;48.784;9.190;2023-05-20T08:33:40;19.40;99.90
10964;DHT22;5534;48.784;9.190;2023-05-20T08:36:06;19.00;99.90
10964;DHT22;5534;48.784;9.190;2023-05-20T08:38:32;19.10;99.90
10964;DHT22;5534;48.784;9.190;2023-05-20T08:40:58;19.30;99.90
10964;DHT22;5534;48.784;9.190;2023-05-20T08:43:25;19.50;99.90
10964;DHT22;5534;48.784;9.190;2023-05-20T08:45:51;19.80;99.90
10964;DHT22;5534;48.784;9.190;2023-05-20T08:48:18;19.90;99.90
10964;DHT22;5534;48.784;9.190;2023-05-20T08:50:51;19.70;99.90
10964;DHT22;5534;48.784;9.190;2023-05-20T08:53:21;19.60;99.90
10964;DHT22;5534;48.784;9.190;2023-05-20T08:55:55;19.70;99.90
10964;DHT22;5534;48.784;9.190;2023-05-20T08:58:23;19.80;99.90
10964;DHT22;5534;48.784;9.190;2023-05-20T09:00:52;19.80;99.90
10964;DHT22;5534;48.784;9.190;2023-05-20T09:03:18;20.00;99.90
10964;DHT22;5534;48.784;9.190;2023-05-20T09:05:48;20.20;99.90
10964;DHT22;5534;48.784;9.190;2023-05-20T09:08:14;20.20;99.90
10964;DHT22;5534;48.784;9.190;2023-05-20T09:10:41;20.10;99.90
10964;DHT22;5534;48.784;9.190;2023-05-20T09:13:08;20.30;99.90
10964;DHT22;5534;48.784;9.190;2023-05-20T09:15:34;20.00;99.90
10964;DHT22;5534;48.784;9.190;2023-05-20T09:18:09;20.20;99.90
10964;DHT22;5534;48.784;9.190;2023-05-20T09:20:37;20.40;99.90
10964;DHT22;5534;48.784;9.190;2023-05-20T09:23:06;20.40;99.90
10964;DHT22;5534;48.784;9.190;2023-05-20T09:25:35;20.40;99.90
10964;DHT22;5534;48.784;9.190;2023-05-20T09:28:03;20.30;99.90
10964;DHT22;5534;48.784;9.190;2023-05-20T09:30:33;20.20;99.90
10964;DHT22;5534;48.784;9.190;2023-05-20T09:33:02;20.00;99.90
10964;DHT22;5534;48.784;9.190;2023-05-20T09:35:33;20.00;99.90
10964;DHT22;5534;48.784;9.190;2023-05-20T09:38:00;19.90;99.90
10964;DHT22;5534;48.784;9.190;2023-05-20T09:40:27;19.90;99.90
10964;DHT22;5534;48.784;9.190;2023-05-20T09:43:04;20.00;99.90
10964;DHT22;5534;48.784;9.190;2023-05-20T09:45:30;20.10;99.90
10964;DHT22;5534;48.784;9.190;2023-05-20T09:47:59;20.30;99.90
10964;DHT22;5534;48.784;9.190;2023-05-20T09:50:26;20.40;99.90
10964;DHT22;5534;48.784;9.190;2023-05-20T09:52:54;20.20;99.90
10964;DHT22;5534;48.784;9.190;2023-05-20T09:55:23;20.40;99.90
10964;DHT22;5534;48.784;9.190;2023-05-20T09:57:49;20.40;99.90
10964;DHT22;5534;48.784;9.190;2023-05-20T10:00:16;20.50;99.90
10964;DHT22;5534;48.784;9.190;2023-05-20T10:02:44;20.40;99.90
10964;DHT22;5534;48.784;9.190;2023-05-20T10:05:24;20.40;99.90
10964;DHT22;5534;48.784;9.190;2023-05-20T10:13:21;20.90;99.90
10964;DHT22;5534;48.784;9.190;2023-05-20T10:21:21;20.70;99.90
10964;DHT22;5534;48.784;9.190;2023-05-20T10:23:50;20.80;99.90
10964;DHT22;5534;48.784;9.190;2023-05-20T10:26:16;21.00;99.90
10964;DHT22;5534;48.784;9.190;2023-05-20T10:28:42;21.00;99.90
10964;DHT22;5534;48.784;9.190;2023-05-20T10:31:20;21.10;99.90
10964;DHT22;5534;48.784;9.190;2023-05-20T10:33:47;21.30;99.90
10964;DHT22;5534;48.784;9.190;2023-05-20T10:36:26;21.30;99.90
10964;DHT22;5534;48.784;9.190;2023-05-20T10:38:57;21.30;99.90
10964;DHT22;5534;48.784;9.190;2023-05-20T10:41:24;21.30;99.90
10964;DHT22;5534;48.784;9.190;2023-05-20T10:44:05;21.30;99.90
10964;DHT22;5534;48.784;9.190;2023-05-20T10:46:32;21.50;99.90
10964;DHT22;5534;48.784;9.190;2023-05-20T10:49:00;21.30;99.90
10964;DHT22;5534;48.784;9.190;2023-05-20T10:51:28;21.20;99.90
10964;DHT22;5534;48.784;9.190;2023-05-20T10:53:54;21.20;99.90
10964;DHT22;5534;48.784;9.190;2023-05-20T10:56:27;21.40;99.90
10964;DHT22;5534;48.784;9.190;2023-05-20T10:58:53;21.50;99.90
10964;DHT22;5534;48.784;9.190;2023-05-20T11:01:24;21.50;99.90
10964;DHT22;5534;48.784;9.190;2023-05-20T11:03:52;21.50;99.90
10964;DHT22;5534;48.784;9.190;2023-05-20T11:06:24;21.50;99.90
10964;DHT22;5534;48.784;9.190;2023-05-20T11:08:50;21.50;99.90
10964;DHT22;5534;48.784;9.190;2023-05-20T11:11:15;21.70;99.90
10964;DHT22;5534;48.784;9.190;2023-05-20T11:13:41;21.80;99.90
10964;DHT22;5534;48.784;9.190;2023-05-20T11:16:08;21.90;99.90
10964;DHT22;5534;48.784;9.190;2023-05-20T11:18:33;21.90;99.90
10964;DHT22;5534;48.784;9.190;2023-05-20T11:21:00;21.90;99.90
10964;DHT22;5534;48.784;9.190;2023-05-20T11:23:27;21.90;99.90
10964;DHT22;5534;48.784;9.190;2023-05-20T11:25:55;21.80;99.90
10964;DHT22;5534;48.784;9.190;2023-05-20T11:28:22;21.80;99.90
10964;DHT22;5534;48.784;9.190;2023-05-20T11:30:49;21.90;99.90
10964;DHT22;5534;48.784;9.190;2023-05-20T11:33:18;22.00;99.90
10964;DHT22;5534;48.784;9.190;2023-05-20T11:35:49;22.10;99.90
10964;DHT22;5534;48.784;9.190;2023-05-20T11:38:16;22.30;99.90
10964;DHT22;5534;48.784;9.190;2023-05-20T11:40:49;22.30;99.90
10964;DHT22;5534;48.784;9.190;2023-05-20T11:43:15;22.20;99.90
10964;DHT22;5534;48.784;9.190;2023-05-20T11:45:46;22.20;99.90
10964;DHT22;5534;48.784;9.190;2023-05-20T11:48:12;22.00;99.90
10964;DHT22;5534;48.784;9.190;2023-05-20T11:50:42;22.00;99.90
10964;DHT22;5534;48.784;9.190;2023-05-20T11:53:14;21.80;99.90
10964;DHT22;5534;48.784;9.190;2023-05-20T11:56:06;21.70;99.90
10964;DHT22;5534;48.784;9.190;2023-05-20T11:58:32;21.70;99.90
10964;DHT22;5534;48.784;9.190;2023-05-20T12:00:58;21.80;99.90
10964;DHT22;5534;48.784;9.190;2023-05-20T12:03:24;21.80;99.90
10964;DHT22;5534;48.784;9.190;2023-05-20T12:05:51;21.80;99.90
10964;DHT22;5534;48.784;9.190;2023-05-20T12:08:19;21.80;99.90
10964;DHT22;5534;48.784;9.190;2023-05-20T12:10:44;21.80;99.90
10964;DHT22;5534;48.784;9.190;2023-05-20T12:13:10;21.80;99.90
10964;DHT22;5534;48.784;9.190;2023-05-20T12:15:38;21.90;99.90
10964;DHT22;5534;48.784;9.190;2023-05-20T12:18:04;21.90;99.90
10964;DHT22;5534;48.784;9.190;2023-05-20T12:20:30;22.20;99.90
10964;DHT22;5534;48.784;9.190;2023-05-20T12:22:59;22.40;99.90
10964;DHT22;5534;48.784;9.190;2023-05-20T12:25:25;22.70;99.90
10964;DHT22;5534;48.784;9.190;2023-05-20T12:27:50;22.90;99.90
10964;DHT22;5534;48.784;9.190;2023-05-20T12:30:20;23.00;99.90
10964;DHT22;5534;48.784;9.190;2023-05-20T12:32:48;23.00;99.90
10964;DHT22;5534;48.784;9.190;2023-05-20T12:35:25;22.80;99.90
10964;DHT22;5534;48.784;9.190;2023-05-20T12:38:00;22.90;99.90
10964;DHT22;5534;48.784;9.190;2023-05-20T12:40:26;22.80;99.90
10964;DHT22;5534;48.784;9.190;2023-05-20T12:42:53;22.70;99.90
10964;DHT22;5534;48.784;9.190;2023-05-20T12:45:19;22.70;99.90
10964;DHT22;5534;48.784;9.190;2023-05-20T12:47:45;22.70;99.90
10964;DHT22;5534;48.784;9.190;2023-05-20T12:50:10;22.70;99.90
10964;DHT22;5534;48.784;9.190;2023-05-20T12:52:37;22.80;99.90
10964;DHT22;5534;48.784;9.190;2023-05-20T12:55:03;22.80;99.90
10964;DHT22;5534;48.784;9.190;2023-05-20T12:57:31;22.70;99.90
10964;DHT22;5534;48.784;9.190;2023-05-20T12:59:57;22.60;99.90
10964;DHT22;5534;48.784;9.190;2023-05-20T13:02:22;22.50;99.90
10964;DHT22;5534;48.784;9.190;2023-05-20T13:04:48;22.50;99.90
10964;DHT22;5534;48.784;9.190;2023-05-20T13:07:14;22.50;99.90
10964;DHT22;5534;48.784;9.190;2023-05-20T13:09:40;22.60;99.90
10964;DHT22;5534;48.784;9.190;2023-05-20T13:12:06;22.80;99.90
10964;DHT22;5534;48.784;9.190;2023-05-20T13:14:32;22.90;99.90
10964;DHT22;5534;48.784;9.190;2023-05-20T13:16:57;22.90;99.90
10964;DHT22;5534;48.784;9.190;2023-05-20T13:19:23;23.00;99.90
10964;DHT22;5534;48.784;9.190;2023-05-20T13:21:50;23.10;99.90
10964;DHT22;5534;48.784;9.190;2023-05-20T13:24:16;23.40;99.90
10964;DHT22;5534;48.784;9.190;2023-05-20T13:26:42;23.50;99.90
10964;DHT22;5534;48.784;9.190;2023-05-20T13:29:09;23.70;99.90
10964;DHT22;5534;48.784;9.190;2023-05-20T13:31:34;23.70;99.90
10964;DHT22;5534;48.784;9.190;2023-05-20T13:34:02;23.70;99.90
10964;DHT22;5534;48.784;9.190;2023-05-20T13:36:28;23.50;99.90
10964;DHT22;5534;48.784;9.190;2023-05-20T13:38:54;23.60;99.90
10964;DHT22;5534;48.784;9.190;2023-05-20T13:41:20;23.70;99.90
10964;DHT22;5534;48.784;9.190;2023-05-20T13:43:45;23.80;99.90
10964;DHT22;5534;48.784;9.190;2023-05-20T13:46:11;23.90;99.90
10964;DHT22;5534;48.784;9.190;2023-05-20T13:48:37;23.90;99.90
10964;DHT22;5534;48.784;9.190;2023-05-20T13:51:03;24.10;99.90
10964;DHT22;5534;48.784;9.190;2023-05-20T13:53:29;24.20;99.90
10964;DHT22;5534;48.784;9.190;2023-05-20T13:55:55;24.20;99.90
10964;DHT22;5534;48.784;9.190;2023-05-20T13:58:21;24.10;99.90
10964;DHT22;5534;48.784;9.190;2023-05-20T14:00:46;23.90;99.90
10964;DHT22;5534;48.784;9.190;2023-05-20T14:03:12;23.70;99.90
10964;DHT22;5534;48.784;9.190;2023-05-20T14:05:38;23.60;99.90
10964;DHT22;5534;48.784;9.190;2023-05-20T14:08:05;23.50;99.90
10964;DHT22;5534;48.784;9.190;2023-05-20T14:10:30;23.60;99.90
10964;DHT22;5534;48.784;9.190;2023-05-20T14:12:57;23.50;99.90
10964;DHT22;5534;48.784;9.190;2023-05-20T14:15:23;23.50;99.90
10964;DHT22;5534;48.784;9.190;2023-05-20T14:17:50;23.40;99.90
10964;DHT22;5534;48.784;9.190;2023-05-20T14:20:16;23.30;99.90
10964;DHT22;5534;48.784;9.190;2023-05-20T14:22:42;23.20;99.90
10964;DHT22;5534;48.784;9.190;2023-05-20T14:25:08;23.20;99.90
10964;DHT22;5534;48.784;9.190;2023-05-20T14:27:34;23.20;99.90
10964;DHT22;5534;48.784;9.190;2023-05-20T14:29:59;23.20;99.90
10964;DHT22;5534;48.784;9.190;2023-05-20T14:32:26;23.20;99.90
10964;DHT22;5534;48.784;9.190;2023-05-20T14:34:52;23.40;99.90
10964;DHT22;5534;48.784;9.190;2023-05-20T14:37:18;23.30;99.90
10964;DHT22;5534;48.784;9.190;2023-05-20T14:39:44;23.10;99.90
10964;DHT22;5534;48.784;9.190;2023-05-20T14:42:11;23.00;99.90
10964;DHT22;5534;48.784;9.190;2023-05-20T14:44:36;22.90;99.90
10964;DHT22;5534;48.784;9.190;2023-05-20T14:47:03;22.90;99.90
10964;DHT22;5534;48.784;9.190;2023-05-20T14:49:30;23.00;99.90
10964;DHT22;5534;48.784;9.190;2023-05-20T14:51:56;23.20;99.90
10964;DHT22;5534;48.784;9.190;2023-05-20T14:54:21;23.00;99.90
10964;DHT22;5534;48.784;9.190;2023-05-20T14:56:50;23.10;99.90
10964;DHT22;5534;48.784;9.190;2023-05-20T14:59:17;23.00;99.90
10964;DHT22;5534;48.784;9.190;2023-05-20T15:01:42;23.10;99.90
10964;DHT22;5534;48.784;9.190;2023-05-20T15:04:08;23.20;99.90
10964;DHT22;5534;48.784;9.190;2023-05-20T15:06:34;23.10;99.90
10964;DHT22;5534;48.784;9.190;2023-05-20T15:09:04;23.10;99.90
10964;DHT22;5534;48.784;9.190;2023-05-20T15:11:30;23.20;99.90
10964;DHT22;5534;48.784;9.190;2023-05-20T15:13:56;23.30;99.90
10964;DHT22;5534;48.784;9.190;2023-05-20T15:16:23;23.20;99.90
10964;DHT22;5534;48.784;9.190;2023-05-20T15:18:50;23.10;99.90
10964;DHT22;5534;48.784;9.190;2023-05-20T15:21:15;23.00;99.90
10964;DHT22;5534;48.784;9.190;2023-05-20T15:23:41;22.80;99.90
10964;DHT22;5534;48.784;9.190;2023-05-20T15:26:09;22.80;99.90
10964;DHT22;5534;48.784;9.190;2023-05-20T15:28:38;22.90;99.90
10964;DHT22;5534;48.784;9.190;2023-05-20T15:31:04;22.90;99.90
10964;DHT22;5534;48.784;9.190;2023-05-20T15:33:30;22.80;99.90
10964;DHT22;5534;48.784;9.190;2023-05-20T15:35:56;22.80;99.90
10964;DHT22;5534;48.784;9.190;2023-05-20T15:38:24;22.80;99.90
10964;DHT22;5534;48.784;9.190;2023-05-20T15:40:50;22.80;99.90
10964;DHT22;5534;48.784;9.190;2023-05-20T15:43:16;22.90;99.90
10964;DHT22;5534;48.784;9.190;2023-05-20T15:45:43;22.90;99.90
10964;DHT22;5534;48.784;9.190;2023-05-20T15:48:09;22.90;99.90
10964;DHT22;5534;48.784;9.190;2023-05-20T15:50:36;22.90;99.90
10964;DHT22;5534;48.784;9.190;2023-05-20T15:53:04;22.70;99.90